Elizabethton, TN

10:15 AM EDT on May 27, 2018 (GMT -0400)
Elizabethton

Weather History for K0A9 - January, 2013

Change the Weather History Date:

Friday, January 18, 2013

  Actual Average (KTRI) Record (KTRI)
Temperature  
Mean Temperature 32 °F -  
Max Temperature 39 °F 42 °F 71 °F (1949)
Min Temperature 24 °F 25 °F -3 °F (1994)
Degree Days  
Heating Degree Days 34    
Moisture  
Dew Point 26 °F    
Average Humidity 86    
Maximum Humidity 100    
Minimum Humidity 56    
Precipitation  
Precipitation 0.00 in - - ()
Sea Level Pressure  
Sea Level Pressure 30.43 in    
Wind  
Wind Speed 4 mph (WNW)    
Max Wind Speed 9 mph    
Max Gust Speed -    
Visibility 10 miles    
Events      
Averages and records for this station are not official NWS values.
T = Trace of Precipitation, MM = Missing Value Source: NWS Daily Summary

Daily Weather History Graph

Daily Weather History Graph

Search for Another Location

Airport or City:

Astronomy

Jan. 18, 2013 Rise Set
Actual Time 7:38 AM EST 5:40 PM EST
Civil Twilight 7:10 AM EST 6:08 PM EST
Nautical Twilight 6:38 AM EST 6:39 PM EST
Astronomical Twilight 6:08 AM EST 7:10 PM EST
Moon 11:30 AM EST (1/18) 12:16 AM EST (1/18)
Length of Visible Light 10h 57m
Length of Day
10h 02m
Waxing Crescent, 47% of the Moon is Illuminated
Jan 18
Waxing Crescent
Jan 18
First Quarter
Jan 26
Full
Feb 3
Last Quarter
Feb 10
New

Hourly Weather History & Observations

Time (EST) Temp. Windchill Dew Point Humidity Pressure Visibility Wind Dir Wind Speed Gust Speed Precip Events Conditions
12:55 AM 30.2 °F 24.3 °F 26.6 °F 86% 30.29 in 10.0 mi West 5.8 mph - N/A   Scattered Clouds
1:15 AM 30.2 °F 24.3 °F 26.6 °F 86% 30.31 in 10.0 mi WSW 5.8 mph - N/A   Partly Cloudy
1:35 AM 28.4 °F 23.3 °F 26.6 °F 93% 30.32 in 10.0 mi West 4.6 mph - N/A   Partly Cloudy
1:55 AM 28.4 °F 23.3 °F 26.6 °F 93% 30.32 in 10.0 mi WSW 4.6 mph - N/A   Partly Cloudy
2:15 AM 28.4 °F 23.3 °F 24.8 °F 86% 30.34 in 10.0 mi West 4.6 mph - N/A   Clear
2:35 AM 28.4 °F 24.6 °F 26.6 °F 93% 30.35 in 10.0 mi West 3.5 mph - N/A   Clear
2:55 AM 26.6 °F - 24.8 °F 93% 30.35 in 10.0 mi Calm Calm - N/A   Clear
3:15 AM 26.6 °F 22.6 °F 24.8 °F 93% 30.35 in 10.0 mi WNW 3.5 mph - N/A   Clear
3:35 AM 26.6 °F 21.2 °F 24.8 °F 93% 30.36 in 10.0 mi WNW 4.6 mph - N/A   Clear
3:55 AM 24.8 °F 19.1 °F 24.8 °F 100% 30.36 in 10.0 mi NW 4.6 mph - N/A   Clear
4:15 AM 24.8 °F 17.9 °F 24.8 °F 100% 30.36 in 10.0 mi WNW 5.8 mph - N/A   Partly Cloudy
4:35 AM 24.8 °F 19.1 °F 24.8 °F 100% 30.36 in 10.0 mi West 4.6 mph - N/A   Scattered Clouds
4:55 AM 26.6 °F 20.0 °F 26.6 °F 100% 30.37 in 10.0 mi West 5.8 mph - N/A   Mostly Cloudy
5:15 AM 28.4 °F 23.3 °F 26.6 °F 93% 30.37 in 10.0 mi West 4.6 mph - N/A   Overcast
5:35 AM 28.4 °F 23.3 °F 26.6 °F 93% 30.37 in 10.0 mi WSW 4.6 mph - N/A   Overcast
5:55 AM 28.4 °F 22.2 °F 26.6 °F 93% 30.38 in 10.0 mi WSW 5.8 mph - N/A   Overcast
6:15 AM 26.6 °F 20.0 °F 26.6 °F 100% 30.38 in 10.0 mi WSW 5.8 mph - N/A   Overcast
6:35 AM 26.6 °F 20.0 °F 24.8 °F 93% 30.39 in 10.0 mi West 5.8 mph - N/A   Mostly Cloudy
6:55 AM 26.6 °F 21.2 °F 24.8 °F 93% 30.40 in 10.0 mi West 4.6 mph - N/A   Mostly Cloudy
7:15 AM 26.6 °F 20.0 °F 24.8 °F 93% 30.41 in 10.0 mi SW 5.8 mph - N/A   Scattered Clouds
7:35 AM 26.6 °F 22.6 °F 24.8 °F 93% 30.41 in 9.0 mi WSW 3.5 mph - N/A   Clear
7:55 AM 26.6 °F - 24.8 °F 93% 30.41 in 8.0 mi Calm Calm - N/A   Partly Cloudy
8:15 AM 26.6 °F - 24.8 °F 93% 30.43 in 6.0 mi Calm Calm - N/A   Partly Cloudy
8:35 AM 26.6 °F 22.6 °F 24.8 °F 93% 30.45 in 6.0 mi West 3.5 mph - N/A   Partly Cloudy
8:55 AM 26.6 °F 18.2 °F 24.8 °F 93% 30.46 in 7.0 mi West 8.1 mph - N/A   Mostly Cloudy
9:15 AM 26.6 °F 21.2 °F 24.8 °F 93% 30.47 in 6.0 mi WNW 4.6 mph - N/A   Overcast
9:35 AM 26.6 °F 22.6 °F 24.8 °F 93% 30.48 in 8.0 mi WNW 3.5 mph - N/A   Overcast
9:55 AM 28.4 °F 24.6 °F 26.6 °F 93% 30.50 in 9.0 mi NW 3.5 mph - N/A   Overcast
10:15 AM 28.4 °F 24.6 °F 26.6 °F 93% 30.50 in 9.0 mi NW 3.5 mph - N/A   Overcast
10:35 AM 30.2 °F 26.7 °F 26.6 °F 86% 30.50 in 9.0 mi Variable 3.5 mph - N/A   Overcast
10:55 AM 30.2 °F 25.4 °F 26.6 °F 86% 30.51 in 10.0 mi WSW 4.6 mph - N/A   Mostly Cloudy
11:15 AM 33.8 °F 29.6 °F 26.6 °F 75% 30.50 in 10.0 mi SW 4.6 mph - N/A   Mostly Cloudy
11:35 AM 33.8 °F 30.8 °F 24.8 °F 70% 30.49 in 10.0 mi SW 3.5 mph - N/A   Mostly Cloudy
11:55 AM 33.8 °F - 24.8 °F 70% 30.49 in 10.0 mi Calm Calm - N/A   Scattered Clouds
12:15 PM 35.6 °F - 24.8 °F 65% 30.48 in 10.0 mi Calm Calm - N/A   Partly Cloudy
12:35 PM 35.6 °F - 24.8 °F 65% 30.47 in 10.0 mi Calm Calm - N/A   Clear
12:55 PM 33.8 °F 30.8 °F 24.8 °F 70% 30.47 in 10.0 mi NNE 3.5 mph - N/A   Clear
1:15 PM 37.4 °F - 26.6 °F 65% 30.46 in 10.0 mi Calm Calm - N/A   Clear
1:35 PM 35.6 °F - 24.8 °F 65% 30.46 in 10.0 mi Calm Calm - N/A   Clear
1:55 PM 37.4 °F - 24.8 °F 60% 30.46 in 10.0 mi Calm Calm - N/A   Clear
2:15 PM 37.4 °F - 23.0 °F 56% 30.46 in 10.0 mi Calm Calm - N/A   Clear
2:35 PM 37.4 °F 32.8 °F 26.6 °F 65% 30.46 in 10.0 mi WNW 5.8 mph - N/A   Clear
2:55 PM 37.4 °F 32.1 °F 28.4 °F 70% 30.46 in 10.0 mi WNW 6.9 mph - N/A   Clear
3:15 PM 39.2 °F 35.9 °F 26.6 °F 61% 30.46 in 10.0 mi West 4.6 mph - N/A   Clear
3:35 PM 37.4 °F 32.8 °F 28.4 °F 70% 30.46 in 10.0 mi WNW 5.8 mph - N/A   Clear
3:55 PM 37.4 °F 33.8 °F 28.4 °F 70% 30.46 in 10.0 mi West 4.6 mph - N/A   Clear
4:15 PM 37.4 °F 33.8 °F 28.4 °F 70% 30.47 in 10.0 mi West 4.6 mph - N/A   Clear
4:35 PM 37.4 °F 33.8 °F 28.4 °F 70% 30.47 in 10.0 mi West 4.6 mph - N/A   Clear
4:55 PM 35.6 °F 31.7 °F 28.4 °F 75% 30.47 in 10.0 mi WSW 4.6 mph - N/A   Clear
5:15 PM 35.6 °F 30.7 °F 28.4 °F 75% 30.48 in 10.0 mi WSW 5.8 mph - N/A   Clear
5:35 PM 33.8 °F 30.8 °F 28.4 °F 81% 30.48 in 10.0 mi West 3.5 mph - N/A   Clear
5:55 PM 32.0 °F - 28.4 °F 87% 30.48 in 10.0 mi Calm Calm - N/A   Clear
6:15 PM 30.2 °F - 28.4 °F 93% 30.48 in 10.0 mi Calm Calm - N/A   Clear
6:35 PM 28.4 °F - 28.4 °F 100% 30.48 in 9.0 mi Calm Calm - N/A   Clear
6:55 PM 28.4 °F - 28.4 °F 100% 30.48 in 8.0 mi Calm Calm - N/A   Clear
7:15 PM 28.4 °F - 26.6 °F 93% 30.47 in 6.0 mi Calm Calm - N/A   Clear
7:35 PM 28.4 °F 24.6 °F 28.4 °F 100% 30.47 in 9.0 mi ENE 3.5 mph - N/A   Clear
7:55 PM 28.4 °F 22.2 °F 28.4 °F 100% 30.47 in 10.0 mi East 5.8 mph - N/A   Clear
8:15 PM 28.4 °F 22.2 °F 28.4 °F 100% 30.46 in 10.0 mi ENE 5.8 mph - N/A   Clear
8:35 PM 28.4 °F 21.2 °F 28.4 °F 100% 30.46 in 10.0 mi ENE 6.9 mph - N/A   Clear
8:55 PM 28.4 °F 19.7 °F 26.6 °F 93% 30.45 in 10.0 mi East 9.2 mph - N/A   Clear
9:15 PM 28.4 °F 21.2 °F 26.6 °F 93% 30.45 in 10.0 mi ENE 6.9 mph - N/A   Clear
9:35 PM 28.4 °F 22.2 °F 26.6 °F 93% 30.44 in 10.0 mi NE 5.8 mph - N/A   Clear
9:55 PM 28.4 °F 22.2 °F 26.6 °F 93% 30.45 in 10.0 mi NNE 5.8 mph - N/A   Clear
10:15 PM 28.4 °F - 26.6 °F 93% 30.44 in 10.0 mi Calm Calm - N/A   Clear
10:35 PM 28.4 °F 23.3 °F 26.6 °F 93% 30.43 in 10.0 mi NE 4.6 mph - N/A   Clear
10:55 PM 28.4 °F 23.3 °F 26.6 °F 93% 30.43 in 10.0 mi ENE 4.6 mph - N/A   Clear
11:15 PM 28.4 °F 24.6 °F 26.6 °F 93% 30.43 in 10.0 mi ENE 3.5 mph - N/A   Clear
11:35 PM 28.4 °F 24.6 °F 26.6 °F 93% 30.42 in 10.0 mi ENE 3.5 mph - N/A   Clear
11:55 PM 28.4 °F 22.2 °F 26.6 °F 93% 30.41 in 10.0 mi NE 5.8 mph - N/A   Clear